sensor_id;sensor_type;location;lat;lon;timestamp;P1;durP1;ratioP1;P2;durP2;ratioP2
51913;SDS011;37940;53.002;6.930;2023-03-09T00:00:55;16.42;;;10.48;;
51913;SDS011;37940;53.002;6.930;2023-03-09T00:03:20;16.50;;;10.13;;
51913;SDS011;37940;53.002;6.930;2023-03-09T00:05:54;18.92;;;9.88;;
51913;SDS011;37940;53.002;6.930;2023-03-09T00:08:22;16.75;;;10.32;;
51913;SDS011;37940;53.002;6.930;2023-03-09T00:10:48;18.17;;;9.73;;
51913;SDS011;37940;53.002;6.930;2023-03-09T00:13:21;17.15;;;9.88;;
51913;SDS011;37940;53.002;6.930;2023-03-09T00:15:47;16.98;;;10.68;;
51913;SDS011;37940;53.002;6.930;2023-03-09T00:18:20;16.08;;;9.60;;
51913;SDS011;37940;53.002;6.930;2023-03-09T00:20:47;18.30;;;11.05;;
51913;SDS011;37940;53.002;6.930;2023-03-09T00:23:12;19.02;;;11.82;;
51913;SDS011;37940;53.002;6.930;2023-03-09T00:25:39;17.52;;;10.90;;
51913;SDS011;37940;53.002;6.930;2023-03-09T00:28:05;18.10;;;10.18;;
51913;SDS011;37940;53.002;6.930;2023-03-09T00:30:31;20.75;;;11.57;;
51913;SDS011;37940;53.002;6.930;2023-03-09T00:32:57;20.30;;;10.50;;
51913;SDS011;37940;53.002;6.930;2023-03-09T00:35:23;17.48;;;10.10;;
51913;SDS011;37940;53.002;6.930;2023-03-09T00:37:49;16.83;;;10.32;;
51913;SDS011;37940;53.002;6.930;2023-03-09T00:40:14;17.60;;;10.75;;
51913;SDS011;37940;53.002;6.930;2023-03-09T00:42:44;19.15;;;10.55;;
51913;SDS011;37940;53.002;6.930;2023-03-09T00:45:11;17.00;;;10.32;;
51913;SDS011;37940;53.002;6.930;2023-03-09T00:47:38;21.23;;;10.85;;
51913;SDS011;37940;53.002;6.930;2023-03-09T00:50:05;18.75;;;10.57;;
51913;SDS011;37940;53.002;6.930;2023-03-09T00:52:31;19.58;;;11.15;;
51913;SDS011;37940;53.002;6.930;2023-03-09T00:54:58;17.00;;;10.52;;
51913;SDS011;37940;53.002;6.930;2023-03-09T00:57:24;16.10;;;9.98;;
51913;SDS011;37940;53.002;6.930;2023-03-09T00:59:51;22.05;;;10.85;;
51913;SDS011;37940;53.002;6.930;2023-03-09T01:02:19;17.98;;;10.45;;
51913;SDS011;37940;53.002;6.930;2023-03-09T01:04:46;17.20;;;10.48;;
51913;SDS011;37940;53.002;6.930;2023-03-09T01:07:13;17.50;;;10.60;;
51913;SDS011;37940;53.002;6.930;2023-03-09T01:09:38;17.65;;;10.35;;
51913;SDS011;37940;53.002;6.930;2023-03-09T01:12:05;20.65;;;10.75;;
51913;SDS011;37940;53.002;6.930;2023-03-09T01:14:31;18.52;;;10.95;;
51913;SDS011;37940;53.002;6.930;2023-03-09T01:16:58;17.77;;;10.02;;
51913;SDS011;37940;53.002;6.930;2023-03-09T01:19:23;17.10;;;10.55;;
51913;SDS011;37940;53.002;6.930;2023-03-09T01:21:50;17.92;;;9.90;;
51913;SDS011;37940;53.002;6.930;2023-03-09T01:24:15;14.27;;;8.95;;
51913;SDS011;37940;53.002;6.930;2023-03-09T01:26:41;16.77;;;9.32;;
51913;SDS011;37940;53.002;6.930;2023-03-09T01:29:07;15.68;;;9.68;;
51913;SDS011;37940;53.002;6.930;2023-03-09T01:31:33;16.15;;;9.90;;
51913;SDS011;37940;53.002;6.930;2023-03-09T01:33:58;18.13;;;10.65;;
51913;SDS011;37940;53.002;6.930;2023-03-09T01:36:24;16.55;;;9.52;;
51913;SDS011;37940;53.002;6.930;2023-03-09T01:38:50;17.73;;;9.85;;
51913;SDS011;37940;53.002;6.930;2023-03-09T01:41:16;17.95;;;9.77;;
51913;SDS011;37940;53.002;6.930;2023-03-09T01:43:44;16.58;;;9.68;;
51913;SDS011;37940;53.002;6.930;2023-03-09T01:54:15;16.15;;;9.60;;
51913;SDS011;37940;53.002;6.930;2023-03-09T01:56:53;18.08;;;9.60;;
51913;SDS011;37940;53.002;6.930;2023-03-09T01:59:22;15.48;;;9.32;;
51913;SDS011;37940;53.002;6.930;2023-03-09T02:01:52;16.30;;;8.63;;
51913;SDS011;37940;53.002;6.930;2023-03-09T02:04:20;14.48;;;8.13;;
51913;SDS011;37940;53.002;6.930;2023-03-09T02:12:07;16.23;;;9.60;;
51913;SDS011;37940;53.002;6.930;2023-03-09T02:14:36;15.55;;;9.60;;
51913;SDS011;37940;53.002;6.930;2023-03-09T02:17:02;16.08;;;9.13;;
51913;SDS011;37940;53.002;6.930;2023-03-09T02:22:15;16.65;;;10.05;;
51913;SDS011;37940;53.002;6.930;2023-03-09T02:24:56;17.20;;;10.15;;
51913;SDS011;37940;53.002;6.930;2023-03-09T02:27:34;17.60;;;10.57;;
51913;SDS011;37940;53.002;6.930;2023-03-09T02:30:00;16.67;;;9.30;;
51913;SDS011;37940;53.002;6.930;2023-03-09T02:32:28;18.58;;;9.85;;
51913;SDS011;37940;53.002;6.930;2023-03-09T02:34:55;16.65;;;9.95;;
51913;SDS011;37940;53.002;6.930;2023-03-09T02:37:28;18.92;;;10.18;;
51913;SDS011;37940;53.002;6.930;2023-03-09T02:42:58;18.67;;;10.18;;
51913;SDS011;37940;53.002;6.930;2023-03-09T02:45:26;17.08;;;10.02;;
51913;SDS011;37940;53.002;6.930;2023-03-09T02:47:54;18.25;;;10.85;;
51913;SDS011;37940;53.002;6.930;2023-03-09T02:50:21;16.55;;;10.00;;
51913;SDS011;37940;53.002;6.930;2023-03-09T02:52:47;18.60;;;10.48;;
51913;SDS011;37940;53.002;6.930;2023-03-09T02:55:13;18.48;;;9.70;;
51913;SDS011;37940;53.002;6.930;2023-03-09T02:57:39;21.45;;;10.45;;
51913;SDS011;37940;53.002;6.930;2023-03-09T03:00:06;18.27;;;10.52;;
51913;SDS011;37940;53.002;6.930;2023-03-09T03:02:34;18.67;;;10.57;;
51913;SDS011;37940;53.002;6.930;2023-03-09T03:05:00;19.10;;;10.77;;
51913;SDS011;37940;53.002;6.930;2023-03-09T03:07:26;15.88;;;9.88;;
51913;SDS011;37940;53.002;6.930;2023-03-09T03:09:52;18.50;;;10.75;;
51913;SDS011;37940;53.002;6.930;2023-03-09T03:12:17;17.08;;;9.73;;
51913;SDS011;37940;53.002;6.930;2023-03-09T03:14:43;16.50;;;10.10;;
51913;SDS011;37940;53.002;6.930;2023-03-09T03:17:10;15.93;;;9.57;;
51913;SDS011;37940;53.002;6.930;2023-03-09T03:19:35;15.60;;;8.95;;
51913;SDS011;37940;53.002;6.930;2023-03-09T03:22:02;20.13;;;11.02;;
51913;SDS011;37940;53.002;6.930;2023-03-09T03:24:28;18.15;;;9.98;;
51913;SDS011;37940;53.002;6.930;2023-03-09T03:26:54;16.83;;;9.32;;
51913;SDS011;37940;53.002;6.930;2023-03-09T03:29:20;20.30;;;11.40;;
51913;SDS011;37940;53.002;6.930;2023-03-09T03:31:46;26.08;;;10.85;;
51913;SDS011;37940;53.002;6.930;2023-03-09T03:34:12;21.00;;;11.98;;
51913;SDS011;37940;53.002;6.930;2023-03-09T03:36:38;22.67;;;13.13;;
51913;SDS011;37940;53.002;6.930;2023-03-09T03:39:04;25.92;;;13.27;;
51913;SDS011;37940;53.002;6.930;2023-03-09T03:41:30;22.27;;;12.90;;
51913;SDS011;37940;53.002;6.930;2023-03-09T03:43:57;21.60;;;12.15;;
51913;SDS011;37940;53.002;6.930;2023-03-09T03:46:22;22.20;;;11.98;;
51913;SDS011;37940;53.002;6.930;2023-03-09T03:48:48;22.40;;;13.00;;
51913;SDS011;37940;53.002;6.930;2023-03-09T03:51:14;20.20;;;11.73;;
51913;SDS011;37940;53.002;6.930;2023-03-09T03:53:40;25.13;;;14.02;;
51913;SDS011;37940;53.002;6.930;2023-03-09T03:56:06;24.35;;;13.15;;
51913;SDS011;37940;53.002;6.930;2023-03-09T03:58:32;24.83;;;13.75;;
51913;SDS011;37940;53.002;6.930;2023-03-09T04:00:57;19.55;;;9.98;;
51913;SDS011;37940;53.002;6.930;2023-03-09T04:03:23;22.08;;;13.23;;
51913;SDS011;37940;53.002;6.930;2023-03-09T04:05:49;22.58;;;13.55;;
51913;SDS011;37940;53.002;6.930;2023-03-09T04:08:15;25.70;;;14.23;;
51913;SDS011;37940;53.002;6.930;2023-03-09T04:10:40;26.85;;;14.95;;
51913;SDS011;37940;53.002;6.930;2023-03-09T04:13:06;26.38;;;14.57;;
51913;SDS011;37940;53.002;6.930;2023-03-09T04:15:32;25.45;;;13.48;;
51913;SDS011;37940;53.002;6.930;2023-03-09T04:17:58;24.55;;;14.35;;
51913;SDS011;37940;53.002;6.930;2023-03-09T04:20:24;27.08;;;14.25;;
51913;SDS011;37940;53.002;6.930;2023-03-09T04:22:50;26.38;;;14.85;;
51913;SDS011;37940;53.002;6.930;2023-03-09T04:25:16;27.88;;;14.88;;
51913;SDS011;37940;53.002;6.930;2023-03-09T04:27:42;28.13;;;15.18;;
51913;SDS011;37940;53.002;6.930;2023-03-09T04:30:08;29.05;;;15.20;;
51913;SDS011;37940;53.002;6.930;2023-03-09T04:32:35;27.77;;;15.63;;
51913;SDS011;37940;53.002;6.930;2023-03-09T04:35:00;29.17;;;15.55;;
51913;SDS011;37940;53.002;6.930;2023-03-09T04:37:26;33.03;;;17.42;;
51913;SDS011;37940;53.002;6.930;2023-03-09T04:39:52;29.45;;;15.95;;
51913;SDS011;37940;53.002;6.930;2023-03-09T04:42:18;28.77;;;16.15;;
51913;SDS011;37940;53.002;6.930;2023-03-09T04:44:43;29.02;;;15.43;;
51913;SDS011;37940;53.002;6.930;2023-03-09T04:47:12;27.98;;;15.38;;
51913;SDS011;37940;53.002;6.930;2023-03-09T04:49:39;31.33;;;16.38;;
51913;SDS011;37940;53.002;6.930;2023-03-09T04:52:05;29.58;;;15.15;;
51913;SDS011;37940;53.002;6.930;2023-03-09T04:54:32;29.55;;;16.52;;
51913;SDS011;37940;53.002;6.930;2023-03-09T04:56:58;28.30;;;15.25;;
51913;SDS011;37940;53.002;6.930;2023-03-09T04:59:24;30.02;;;16.30;;
51913;SDS011;37940;53.002;6.930;2023-03-09T05:01:49;31.58;;;15.82;;
51913;SDS011;37940;53.002;6.930;2023-03-09T05:04:15;28.65;;;15.82;;
51913;SDS011;37940;53.002;6.930;2023-03-09T05:06:41;29.52;;;15.40;;
51913;SDS011;37940;53.002;6.930;2023-03-09T05:09:07;27.95;;;13.88;;
51913;SDS011;37940;53.002;6.930;2023-03-09T05:11:33;30.23;;;15.85;;
51913;SDS011;37940;53.002;6.930;2023-03-09T05:13:58;31.13;;;15.63;;
51913;SDS011;37940;53.002;6.930;2023-03-09T05:16:24;28.27;;;15.13;;
51913;SDS011;37940;53.002;6.930;2023-03-09T05:18:51;30.88;;;15.88;;
51913;SDS011;37940;53.002;6.930;2023-03-09T05:21:17;29.48;;;15.48;;
51913;SDS011;37940;53.002;6.930;2023-03-09T05:23:43;30.00;;;15.20;;
51913;SDS011;37940;53.002;6.930;2023-03-09T05:26:09;31.33;;;16.08;;
51913;SDS011;37940;53.002;6.930;2023-03-09T05:28:35;30.67;;;15.95;;
51913;SDS011;37940;53.002;6.930;2023-03-09T05:31:02;31.33;;;16.13;;
51913;SDS011;37940;53.002;6.930;2023-03-09T05:33:33;32.63;;;16.10;;
51913;SDS011;37940;53.002;6.930;2023-03-09T05:35:59;30.70;;;14.88;;
51913;SDS011;37940;53.002;6.930;2023-03-09T05:38:25;32.58;;;15.73;;
51913;SDS011;37940;53.002;6.930;2023-03-09T05:40:50;33.10;;;16.45;;
51913;SDS011;37940;53.002;6.930;2023-03-09T05:43:16;25.83;;;13.98;;
51913;SDS011;37940;53.002;6.930;2023-03-09T05:45:42;29.98;;;15.38;;
51913;SDS011;37940;53.002;6.930;2023-03-09T05:48:07;31.35;;;16.08;;
51913;SDS011;37940;53.002;6.930;2023-03-09T05:50:33;32.10;;;15.23;;
51913;SDS011;37940;53.002;6.930;2023-03-09T05:52:59;34.00;;;16.33;;
51913;SDS011;37940;53.002;6.930;2023-03-09T05:55:25;29.52;;;14.68;;
51913;SDS011;37940;53.002;6.930;2023-03-09T05:57:52;27.13;;;13.82;;
51913;SDS011;37940;53.002;6.930;2023-03-09T06:00:17;30.77;;;15.98;;
51913;SDS011;37940;53.002;6.930;2023-03-09T06:02:43;30.95;;;15.38;;
51913;SDS011;37940;53.002;6.930;2023-03-09T06:05:09;29.60;;;14.80;;
51913;SDS011;37940;53.002;6.930;2023-03-09T06:07:35;28.52;;;15.27;;
51913;SDS011;37940;53.002;6.930;2023-03-09T06:10:01;29.02;;;15.18;;
51913;SDS011;37940;53.002;6.930;2023-03-09T06:12:26;27.55;;;14.40;;
51913;SDS011;37940;53.002;6.930;2023-03-09T06:14:52;24.60;;;13.02;;
51913;SDS011;37940;53.002;6.930;2023-03-09T06:17:18;27.23;;;14.68;;
51913;SDS011;37940;53.002;6.930;2023-03-09T06:19:44;26.00;;;13.88;;
51913;SDS011;37940;53.002;6.930;2023-03-09T06:22:10;26.58;;;15.05;;
51913;SDS011;37940;53.002;6.930;2023-03-09T06:24:35;25.80;;;13.95;;
51913;SDS011;37940;53.002;6.930;2023-03-09T06:27:02;23.95;;;13.10;;
51913;SDS011;37940;53.002;6.930;2023-03-09T06:29:28;23.63;;;12.95;;
51913;SDS011;37940;53.002;6.930;2023-03-09T06:31:54;26.92;;;14.13;;
51913;SDS011;37940;53.002;6.930;2023-03-09T06:34:22;25.50;;;14.50;;
51913;SDS011;37940;53.002;6.930;2023-03-09T06:36:48;22.70;;;12.48;;
51913;SDS011;37940;53.002;6.930;2023-03-09T06:39:13;27.73;;;13.82;;
51913;SDS011;37940;53.002;6.930;2023-03-09T06:41:39;28.95;;;14.48;;
51913;SDS011;37940;53.002;6.930;2023-03-09T06:44:05;24.88;;;13.52;;
51913;SDS011;37940;53.002;6.930;2023-03-09T06:46:31;25.00;;;14.00;;
51913;SDS011;37940;53.002;6.930;2023-03-09T06:48:57;25.55;;;14.07;;
51913;SDS011;37940;53.002;6.930;2023-03-09T06:51:22;25.63;;;14.48;;
51913;SDS011;37940;53.002;6.930;2023-03-09T06:53:48;24.65;;;13.40;;
51913;SDS011;37940;53.002;6.930;2023-03-09T06:56:14;25.38;;;14.27;;
51913;SDS011;37940;53.002;6.930;2023-03-09T06:58:40;23.77;;;13.65;;
51913;SDS011;37940;53.002;6.930;2023-03-09T07:01:06;28.70;;;14.88;;
51913;SDS011;37940;53.002;6.930;2023-03-09T07:03:36;25.42;;;14.25;;
51913;SDS011;37940;53.002;6.930;2023-03-09T07:06:02;23.52;;;13.15;;
51913;SDS011;37940;53.002;6.930;2023-03-09T07:08:28;24.38;;;12.98;;
51913;SDS011;37940;53.002;6.930;2023-03-09T07:10:54;25.15;;;14.13;;
51913;SDS011;37940;53.002;6.930;2023-03-09T07:13:20;23.95;;;14.38;;
51913;SDS011;37940;53.002;6.930;2023-03-09T07:15:46;25.38;;;13.80;;
51913;SDS011;37940;53.002;6.930;2023-03-09T07:18:11;23.25;;;12.60;;
51913;SDS011;37940;53.002;6.930;2023-03-09T07:20:38;22.25;;;12.93;;
51913;SDS011;37940;53.002;6.930;2023-03-09T07:23:04;22.77;;;13.38;;
51913;SDS011;37940;53.002;6.930;2023-03-09T07:25:31;22.38;;;12.80;;
51913;SDS011;37940;53.002;6.930;2023-03-09T07:28:03;21.58;;;13.13;;
51913;SDS011;37940;53.002;6.930;2023-03-09T07:30:30;23.70;;;14.15;;
51913;SDS011;37940;53.002;6.930;2023-03-09T07:32:56;23.23;;;14.18;;
51913;SDS011;37940;53.002;6.930;2023-03-09T07:35:22;23.30;;;13.88;;
51913;SDS011;37940;53.002;6.930;2023-03-09T07:37:48;23.52;;;14.10;;
51913;SDS011;37940;53.002;6.930;2023-03-09T07:40:14;26.05;;;14.68;;
51913;SDS011;37940;53.002;6.930;2023-03-09T07:42:40;22.75;;;13.27;;
51913;SDS011;37940;53.002;6.930;2023-03-09T07:45:06;23.08;;;13.77;;
51913;SDS011;37940;53.002;6.930;2023-03-09T07:47:32;19.92;;;12.63;;
51913;SDS011;37940;53.002;6.930;2023-03-09T07:49:58;20.30;;;12.32;;
51913;SDS011;37940;53.002;6.930;2023-03-09T07:52:25;22.95;;;13.68;;
51913;SDS011;37940;53.002;6.930;2023-03-09T07:54:59;21.92;;;12.55;;
51913;SDS011;37940;53.002;6.930;2023-03-09T07:57:29;21.88;;;13.05;;
51913;SDS011;37940;53.002;6.930;2023-03-09T07:59:56;22.73;;;12.68;;
51913;SDS011;37940;53.002;6.930;2023-03-09T08:02:22;19.90;;;11.90;;
51913;SDS011;37940;53.002;6.930;2023-03-09T08:04:48;20.23;;;12.52;;
51913;SDS011;37940;53.002;6.930;2023-03-09T08:07:14;18.52;;;11.63;;
51913;SDS011;37940;53.002;6.930;2023-03-09T08:09:40;19.35;;;10.98;;
51913;SDS011;37940;53.002;6.930;2023-03-09T08:12:06;20.80;;;12.70;;
51913;SDS011;37940;53.002;6.930;2023-03-09T08:14:33;19.00;;;12.25;;
51913;SDS011;37940;53.002;6.930;2023-03-09T08:16:59;20.35;;;12.23;;
51913;SDS011;37940;53.002;6.930;2023-03-09T08:19:26;18.48;;;11.80;;
51913;SDS011;37940;53.002;6.930;2023-03-09T08:21:52;20.08;;;12.15;;
51913;SDS011;37940;53.002;6.930;2023-03-09T08:24:17;20.55;;;12.65;;
51913;SDS011;37940;53.002;6.930;2023-03-09T08:26:43;20.23;;;12.45;;
51913;SDS011;37940;53.002;6.930;2023-03-09T08:29:09;19.67;;;12.70;;
51913;SDS011;37940;53.002;6.930;2023-03-09T08:31:35;21.05;;;12.73;;
51913;SDS011;37940;53.002;6.930;2023-03-09T08:34:02;20.80;;;13.40;;
51913;SDS011;37940;53.002;6.930;2023-03-09T08:36:28;19.15;;;12.20;;
51913;SDS011;37940;53.002;6.930;2023-03-09T08:38:54;21.42;;;12.35;;
51913;SDS011;37940;53.002;6.930;2023-03-09T08:41:20;20.35;;;12.57;;
51913;SDS011;37940;53.002;6.930;2023-03-09T08:43:46;20.00;;;12.85;;
51913;SDS011;37940;53.002;6.930;2023-03-09T08:46:13;19.83;;;13.20;;
51913;SDS011;37940;53.002;6.930;2023-03-09T08:48:39;21.13;;;12.80;;
51913;SDS011;37940;53.002;6.930;2023-03-09T08:51:06;19.58;;;12.73;;
51913;SDS011;37940;53.002;6.930;2023-03-09T08:53:36;19.55;;;12.68;;
51913;SDS011;37940;53.002;6.930;2023-03-09T08:56:03;18.50;;;11.02;;
51913;SDS011;37940;53.002;6.930;2023-03-09T08:58:33;18.45;;;12.73;;
51913;SDS011;37940;53.002;6.930;2023-03-09T09:01:00;22.08;;;12.52;;
51913;SDS011;37940;53.002;6.930;2023-03-09T09:03:29;20.92;;;12.75;;
51913;SDS011;37940;53.002;6.930;2023-03-09T09:05:56;20.17;;;13.23;;
51913;SDS011;37940;53.002;6.930;2023-03-09T09:08:28;19.52;;;13.13;;
51913;SDS011;37940;53.002;6.930;2023-03-09T09:10:54;20.20;;;13.07;;
51913;SDS011;37940;53.002;6.930;2023-03-09T09:13:22;23.08;;;14.20;;
51913;SDS011;37940;53.002;6.930;2023-03-09T09:15:52;20.67;;;14.07;;
51913;SDS011;37940;53.002;6.930;2023-03-09T09:18:19;19.38;;;12.35;;
51913;SDS011;37940;53.002;6.930;2023-03-09T09:20:45;21.05;;;14.15;;
51913;SDS011;37940;53.002;6.930;2023-03-09T09:23:10;19.83;;;13.15;;
51913;SDS011;37940;53.002;6.930;2023-03-09T09:25:36;18.67;;;12.52;;
51913;SDS011;37940;53.002;6.930;2023-03-09T09:28:02;19.20;;;13.35;;
51913;SDS011;37940;53.002;6.930;2023-03-09T09:30:27;20.15;;;12.57;;
51913;SDS011;37940;53.002;6.930;2023-03-09T09:32:57;20.77;;;12.02;;
51913;SDS011;37940;53.002;6.930;2023-03-09T09:35:23;18.13;;;11.98;;
51913;SDS011;37940;53.002;6.930;2023-03-09T09:37:49;18.92;;;12.52;;
51913;SDS011;37940;53.002;6.930;2023-03-09T09:40:17;18.48;;;11.40;;
51913;SDS011;37940;53.002;6.930;2023-03-09T09:42:44;17.77;;;11.55;;
51913;SDS011;37940;53.002;6.930;2023-03-09T09:45:29;19.20;;;12.88;;
51913;SDS011;37940;53.002;6.930;2023-03-09T09:47:58;18.88;;;12.38;;
51913;SDS011;37940;53.002;6.930;2023-03-09T09:50:30;19.05;;;12.35;;
51913;SDS011;37940;53.002;6.930;2023-03-09T09:53:20;19.73;;;12.88;;
51913;SDS011;37940;53.002;6.930;2023-03-09T09:55:51;20.92;;;13.00;;
51913;SDS011;37940;53.002;6.930;2023-03-09T09:58:30;21.40;;;13.15;;
51913;SDS011;37940;53.002;6.930;2023-03-09T10:01:10;18.50;;;12.48;;
51913;SDS011;37940;53.002;6.930;2023-03-09T10:03:44;18.40;;;12.60;;
51913;SDS011;37940;53.002;6.930;2023-03-09T10:06:18;20.60;;;12.43;;
51913;SDS011;37940;53.002;6.930;2023-03-09T10:11:43;19.48;;;13.02;;
51913;SDS011;37940;53.002;6.930;2023-03-09T10:16:59;18.58;;;12.32;;
51913;SDS011;37940;53.002;6.930;2023-03-09T10:19:48;18.20;;;11.77;;
51913;SDS011;37940;53.002;6.930;2023-03-09T10:22:22;19.83;;;13.07;;
51913;SDS011;37940;53.002;6.930;2023-03-09T10:24:50;16.98;;;11.82;;
51913;SDS011;37940;53.002;6.930;2023-03-09T10:35:24;19.58;;;13.10;;
51913;SDS011;37940;53.002;6.930;2023-03-09T10:37:58;18.33;;;13.00;;
51913;SDS011;37940;53.002;6.930;2023-03-09T10:42:50;19.05;;;12.68;;
51913;SDS011;37940;53.002;6.930;2023-03-09T10:48:04;18.50;;;13.18;;
51913;SDS011;37940;53.002;6.930;2023-03-09T10:50:38;18.77;;;13.00;;
51913;SDS011;37940;53.002;6.930;2023-03-09T10:53:16;18.58;;;12.95;;
51913;SDS011;37940;53.002;6.930;2023-03-09T10:58:40;19.80;;;13.40;;
51913;SDS011;37940;53.002;6.930;2023-03-09T11:03:38;19.45;;;12.10;;
51913;SDS011;37940;53.002;6.930;2023-03-09T11:08:38;18.50;;;12.70;;
51913;SDS011;37940;53.002;6.930;2023-03-09T11:11:11;18.52;;;12.52;;
51913;SDS011;37940;53.002;6.930;2023-03-09T11:13:44;17.88;;;12.73;;
51913;SDS011;37940;53.002;6.930;2023-03-09T11:16:15;17.33;;;12.13;;
51913;SDS011;37940;53.002;6.930;2023-03-09T11:18:48;16.70;;;12.57;;
51913;SDS011;37940;53.002;6.930;2023-03-09T11:21:36;20.23;;;13.43;;
51913;SDS011;37940;53.002;6.930;2023-03-09T11:24:03;19.23;;;13.00;;
51913;SDS011;37940;53.002;6.930;2023-03-09T11:33:59;18.50;;;12.57;;
51913;SDS011;37940;53.002;6.930;2023-03-09T11:36:36;17.25;;;12.23;;
51913;SDS011;37940;53.002;6.930;2023-03-09T11:39:10;17.55;;;11.90;;
51913;SDS011;37940;53.002;6.930;2023-03-09T11:42:02;19.63;;;12.60;;
51913;SDS011;37940;53.002;6.930;2023-03-09T11:44:33;19.25;;;12.98;;
51913;SDS011;37940;53.002;6.930;2023-03-09T11:47:48;19.75;;;13.48;;
51913;SDS011;37940;53.002;6.930;2023-03-09T11:50:16;17.98;;;12.40;;
51913;SDS011;37940;53.002;6.930;2023-03-09T11:52:46;18.40;;;12.93;;
51913;SDS011;37940;53.002;6.930;2023-03-09T11:55:17;19.63;;;13.75;;
51913;SDS011;37940;53.002;6.930;2023-03-09T11:57:48;20.17;;;13.90;;
51913;SDS011;37940;53.002;6.930;2023-03-09T12:00:19;18.85;;;13.25;;
51913;SDS011;37940;53.002;6.930;2023-03-09T12:02:53;19.23;;;13.15;;
51913;SDS011;37940;53.002;6.930;2023-03-09T12:05:21;19.88;;;13.18;;
51913;SDS011;37940;53.002;6.930;2023-03-09T12:12:59;19.33;;;13.48;;
51913;SDS011;37940;53.002;6.930;2023-03-09T12:15:44;18.55;;;13.18;;
51913;SDS011;37940;53.002;6.930;2023-03-09T12:18:23;18.15;;;12.30;;
51913;SDS011;37940;53.002;6.930;2023-03-09T12:20:53;18.60;;;12.68;;
51913;SDS011;37940;53.002;6.930;2023-03-09T12:28:50;19.20;;;13.35;;
51913;SDS011;37940;53.002;6.930;2023-03-09T12:31:43;18.33;;;13.02;;
51913;SDS011;37940;53.002;6.930;2023-03-09T12:36:37;20.33;;;13.82;;
51913;SDS011;37940;53.002;6.930;2023-03-09T12:42:01;17.75;;;12.77;;
51913;SDS011;37940;53.002;6.930;2023-03-09T12:49:56;18.90;;;12.75;;
51913;SDS011;37940;53.002;6.930;2023-03-09T12:55:11;19.33;;;13.40;;
51913;SDS011;37940;53.002;6.930;2023-03-09T12:57:43;18.27;;;13.07;;
51913;SDS011;37940;53.002;6.930;2023-03-09T13:00:15;18.20;;;13.18;;
51913;SDS011;37940;53.002;6.930;2023-03-09T13:02:48;20.02;;;13.50;;
51913;SDS011;37940;53.002;6.930;2023-03-09T13:05:23;20.50;;;14.30;;
51913;SDS011;37940;53.002;6.930;2023-03-09T13:08:01;21.17;;;14.38;;
51913;SDS011;37940;53.002;6.930;2023-03-09T13:10:31;19.85;;;13.70;;
51913;SDS011;37940;53.002;6.930;2023-03-09T13:13:37;20.70;;;13.45;;
51913;SDS011;37940;53.002;6.930;2023-03-09T13:24:19;19.05;;;12.85;;
51913;SDS011;37940;53.002;6.930;2023-03-09T13:26:47;19.70;;;13.05;;
51913;SDS011;37940;53.002;6.930;2023-03-09T13:29:15;19.52;;;12.85;;
51913;SDS011;37940;53.002;6.930;2023-03-09T13:31:44;19.70;;;13.32;;
51913;SDS011;37940;53.002;6.930;2023-03-09T13:34:14;20.05;;;13.77;;
51913;SDS011;37940;53.002;6.930;2023-03-09T13:36:47;18.13;;;13.07;;
51913;SDS011;37940;53.002;6.930;2023-03-09T13:39:16;20.73;;;13.90;;
51913;SDS011;37940;53.002;6.930;2023-03-09T13:41:43;19.10;;;13.40;;
51913;SDS011;37940;53.002;6.930;2023-03-09T13:44:12;20.10;;;13.77;;
51913;SDS011;37940;53.002;6.930;2023-03-09T13:46:44;19.92;;;13.77;;
51913;SDS011;37940;53.002;6.930;2023-03-09T13:51:45;19.25;;;13.20;;
51913;SDS011;37940;53.002;6.930;2023-03-09T13:54:25;21.60;;;14.00;;
51913;SDS011;37940;53.002;6.930;2023-03-09T13:59:51;21.48;;;14.48;;
51913;SDS011;37940;53.002;6.930;2023-03-09T14:02:19;19.90;;;13.80;;
51913;SDS011;37940;53.002;6.930;2023-03-09T14:04:50;21.02;;;14.07;;
51913;SDS011;37940;53.002;6.930;2023-03-09T14:07:30;21.83;;;14.52;;
51913;SDS011;37940;53.002;6.930;2023-03-09T14:10:19;19.85;;;13.60;;
51913;SDS011;37940;53.002;6.930;2023-03-09T14:12:46;21.83;;;13.38;;
51913;SDS011;37940;53.002;6.930;2023-03-09T14:15:16;20.88;;;14.75;;
51913;SDS011;37940;53.002;6.930;2023-03-09T14:17:44;20.65;;;14.70;;
51913;SDS011;37940;53.002;6.930;2023-03-09T14:20:23;21.30;;;14.95;;
51913;SDS011;37940;53.002;6.930;2023-03-09T14:22:50;22.92;;;14.77;;
51913;SDS011;37940;53.002;6.930;2023-03-09T14:27:48;22.48;;;14.25;;
51913;SDS011;37940;53.002;6.930;2023-03-09T14:33:03;22.63;;;15.65;;
51913;SDS011;37940;53.002;6.930;2023-03-09T14:35:37;22.88;;;15.85;;
51913;SDS011;37940;53.002;6.930;2023-03-09T14:38:21;27.23;;;14.93;;
51913;SDS011;37940;53.002;6.930;2023-03-09T14:40:48;24.65;;;16.17;;
51913;SDS011;37940;53.002;6.930;2023-03-09T14:43:37;24.40;;;15.25;;
51913;SDS011;37940;53.002;6.930;2023-03-09T14:46:10;25.27;;;15.85;;
51913;SDS011;37940;53.002;6.930;2023-03-09T14:48:39;28.10;;;16.48;;
51913;SDS011;37940;53.002;6.930;2023-03-09T14:51:06;25.67;;;16.05;;
51913;SDS011;37940;53.002;6.930;2023-03-09T14:53:47;22.85;;;15.35;;
51913;SDS011;37940;53.002;6.930;2023-03-09T14:56:18;24.63;;;15.27;;
51913;SDS011;37940;53.002;6.930;2023-03-09T14:58:44;23.83;;;15.10;;
51913;SDS011;37940;53.002;6.930;2023-03-09T15:01:09;24.30;;;16.17;;
51913;SDS011;37940;53.002;6.930;2023-03-09T15:03:35;28.40;;;17.10;;
51913;SDS011;37940;53.002;6.930;2023-03-09T15:06:01;28.95;;;17.42;;
51913;SDS011;37940;53.002;6.930;2023-03-09T15:08:27;24.67;;;15.48;;
51913;SDS011;37940;53.002;6.930;2023-03-09T15:10:52;27.17;;;17.33;;
51913;SDS011;37940;53.002;6.930;2023-03-09T15:13:18;27.80;;;16.33;;
51913;SDS011;37940;53.002;6.930;2023-03-09T15:15:44;27.50;;;16.52;;
51913;SDS011;37940;53.002;6.930;2023-03-09T15:18:10;27.70;;;17.35;;
51913;SDS011;37940;53.002;6.930;2023-03-09T15:20:36;29.50;;;17.65;;
51913;SDS011;37940;53.002;6.930;2023-03-09T15:23:02;26.55;;;16.27;;
51913;SDS011;37940;53.002;6.930;2023-03-09T15:30:33;27.05;;;16.50;;
51913;SDS011;37940;53.002;6.930;2023-03-09T15:32:59;27.73;;;17.05;;
51913;SDS011;37940;53.002;6.930;2023-03-09T15:35:25;27.23;;;16.10;;
51913;SDS011;37940;53.002;6.930;2023-03-09T15:37:51;28.42;;;17.20;;
51913;SDS011;37940;53.002;6.930;2023-03-09T15:40:17;30.92;;;18.17;;
51913;SDS011;37940;53.002;6.930;2023-03-09T15:42:44;30.25;;;18.13;;
51913;SDS011;37940;53.002;6.930;2023-03-09T15:45:11;27.67;;;17.42;;
51913;SDS011;37940;53.002;6.930;2023-03-09T15:47:38;30.17;;;17.98;;
51913;SDS011;37940;53.002;6.930;2023-03-09T15:50:06;30.85;;;17.95;;
51913;SDS011;37940;53.002;6.930;2023-03-09T15:52:33;33.35;;;19.08;;
51913;SDS011;37940;53.002;6.930;2023-03-09T15:55:03;31.83;;;18.38;;
51913;SDS011;37940;53.002;6.930;2023-03-09T15:57:30;32.28;;;18.52;;
51913;SDS011;37940;53.002;6.930;2023-03-09T15:59:56;29.98;;;18.08;;
51913;SDS011;37940;53.002;6.930;2023-03-09T16:02:23;33.00;;;17.88;;
51913;SDS011;37940;53.002;6.930;2023-03-09T16:04:49;35.17;;;17.90;;
51913;SDS011;37940;53.002;6.930;2023-03-09T16:07:16;33.83;;;18.63;;
51913;SDS011;37940;53.002;6.930;2023-03-09T16:09:42;33.70;;;17.88;;
51913;SDS011;37940;53.002;6.930;2023-03-09T16:12:08;29.85;;;17.45;;